createdAt,value
2018-05-08T00:00:07.288Z,20.47
2018-05-08T00:00:47.687Z,20.38
2018-05-08T00:01:28.169Z,20.52
2018-05-08T00:02:08.659Z,20.48
2018-05-08T00:02:49.144Z,20.48
2018-05-08T00:03:29.658Z,20.47
2018-05-08T00:04:10.090Z,20.42
2018-05-08T00:04:50.626Z,20.39
2018-05-08T00:05:31.137Z,20.42
2018-05-08T00:06:11.588Z,20.42
2018-05-08T00:06:52.030Z,20.43
2018-05-08T00:07:32.558Z,20.42
2018-05-08T00:08:13.043Z,20.51
2018-05-08T00:08:53.618Z,20.42
2018-05-08T00:09:34.029Z,20.43
2018-05-08T00:10:14.509Z,20.5
2018-05-08T00:10:54.996Z,20.38
2018-05-08T00:11:35.438Z,20.51
2018-05-08T00:12:15.921Z,20.42
2018-05-08T00:12:56.410Z,20.42
2018-05-08T00:13:36.925Z,20.48
2018-05-08T00:14:17.405Z,20.43
2018-05-08T00:14:57.873Z,20.39
2018-05-08T00:15:38.394Z,20.38
2018-05-08T00:16:18.911Z,20.32
2018-05-08T00:16:59.406Z,20.32
2018-05-08T00:17:39.890Z,20.42
2018-05-08T00:18:20.372Z,20.41
2018-05-08T00:19:00.866Z,20.42
2018-05-08T00:19:41.396Z,20.35
2018-05-08T00:20:21.884Z,20.35
2018-05-08T00:21:02.360Z,20.38
2018-05-08T00:21:42.874Z,20.39
2018-05-08T00:22:23.458Z,20.36
2018-05-08T00:23:03.972Z,20.28
2018-05-08T00:23:44.462Z,20.35
2018-05-08T00:24:24.937Z,20.39
2018-05-08T00:25:05.398Z,20.32
2018-05-08T00:25:45.896Z,20.33
2018-05-08T00:26:26.596Z,20.31
2018-05-08T00:27:07.010Z,20.29
2018-05-08T00:27:47.510Z,20.21
2018-05-08T00:28:28.002Z,20.29
2018-05-08T00:29:08.501Z,20.18
2018-05-08T00:29:49.066Z,20.17
2018-05-08T00:30:29.523Z,20.18
2018-05-08T00:31:10.050Z,20.05
2018-05-08T00:31:50.488Z,20.06
2018-05-08T00:32:31.065Z,19.95
2018-05-08T00:33:11.573Z,20.08
2018-05-08T00:33:52.052Z,20.08
2018-05-08T00:34:32.507Z,20.08
2018-05-08T00:35:12.990Z,20.14
2018-05-08T00:35:53.479Z,20.11
2018-05-08T00:36:33.944Z,20.06
2018-05-08T00:37:14.453Z,20.08
2018-05-08T00:37:54.896Z,19.94
2018-05-08T00:38:35.388Z,19.96
2018-05-08T00:39:15.871Z,19.96
2018-05-08T00:39:56.401Z,19.92
2018-05-08T00:40:36.920Z,19.94
2018-05-08T00:41:17.421Z,19.84
2018-05-08T00:41:57.933Z,19.76
2018-05-08T00:42:38.418Z,19.81
2018-05-08T00:43:18.864Z,19.88
2018-05-08T00:43:59.385Z,19.74
2018-05-08T00:44:39.908Z,19.8
2018-05-08T00:45:20.384Z,19.8
2018-05-08T00:46:00.887Z,19.84
2018-05-08T00:46:41.448Z,19.83
2018-05-08T00:47:21.934Z,19.76
2018-05-08T00:48:02.392Z,19.71
2018-05-08T00:48:42.906Z,19.56
2018-05-08T00:49:23.392Z,19.78
2018-05-08T00:50:03.871Z,19.74
2018-05-08T00:50:44.352Z,19.76
2018-05-08T00:51:24.846Z,19.87
2018-05-08T00:52:05.365Z,19.78
2018-05-08T00:52:45.843Z,19.76
2018-05-08T00:53:26.304Z,19.76
2018-05-08T00:54:06.845Z,19.73
2018-05-08T00:54:47.297Z,19.74
2018-05-08T00:55:27.743Z,19.77
2018-05-08T00:56:08.259Z,19.74
2018-05-08T00:56:48.818Z,19.74
2018-05-08T00:57:29.281Z,19.78
2018-05-08T00:58:09.767Z,19.73
2018-05-08T00:58:50.255Z,19.69
2018-05-08T00:59:30.739Z,19.63
2018-05-08T01:00:11.279Z,19.61
2018-05-08T01:00:51.732Z,19.54
2018-05-08T01:01:32.267Z,19.65
2018-05-08T01:02:12.736Z,19.58
2018-05-08T01:02:53.252Z,19.61
2018-05-08T01:03:33.752Z,19.63
2018-05-08T01:04:14.195Z,19.58
2018-05-08T01:04:54.704Z,19.65
2018-05-08T01:05:35.208Z,19.54
2018-05-08T01:06:15.730Z,19.5
2018-05-08T01:06:56.193Z,19.39
2018-05-08T01:07:36.673Z,19.54
2018-05-08T01:08:17.229Z,19.63
2018-05-08T01:08:57.655Z,19.47
2018-05-08T01:09:38.167Z,19.43
2018-05-08T01:10:18.663Z,19.43
2018-05-08T01:10:59.110Z,19.48
2018-05-08T01:11:39.642Z,19.47
2018-05-08T01:12:20.057Z,19.54
2018-05-08T01:13:00.574Z,19.47
2018-05-08T01:13:41.016Z,19.44
2018-05-08T01:14:21.708Z,19.43
2018-05-08T01:15:02.226Z,19.44
2018-05-08T01:15:42.676Z,19.37
2018-05-08T01:16:23.215Z,19.4
2018-05-08T01:17:03.635Z,19.32
2018-05-08T01:17:44.142Z,19.37
2018-05-08T01:18:24.618Z,19.31
2018-05-08T01:19:05.084Z,19.41
2018-05-08T01:19:45.595Z,19.4
2018-05-08T01:20:26.088Z,19.37
2018-05-08T01:21:06.638Z,19.44
2018-05-08T01:21:47.112Z,19.41
2018-05-08T01:22:27.541Z,19.43
2018-05-08T01:23:08.051Z,19.54
2018-05-08T01:23:48.620Z,19.48
2018-05-08T01:24:29.074Z,19.59
2018-05-08T01:25:09.592Z,19.48
2018-05-08T01:25:50.217Z,19.54
2018-05-08T01:26:30.699Z,19.51
2018-05-08T01:27:11.287Z,19.5
2018-05-08T01:27:51.802Z,19.46
2018-05-08T01:28:32.276Z,19.55
2018-05-08T01:29:12.759Z,19.48
2018-05-08T01:29:53.255Z,19.62
2018-05-08T01:30:33.751Z,19.5
2018-05-08T01:31:14.216Z,19.54
2018-05-08T01:31:54.692Z,19.56
2018-05-08T01:32:35.176Z,19.55
2018-05-08T01:33:15.654Z,19.48
2018-05-08T01:33:56.341Z,19.4
2018-05-08T01:34:36.667Z,19.48
2018-05-08T01:35:17.144Z,19.46
2018-05-08T01:35:57.655Z,19.54
2018-05-08T01:36:38.270Z,19.48
2018-05-08T01:37:18.740Z,19.54
2018-05-08T01:37:59.270Z,19.44
2018-05-08T01:38:39.743Z,19.44
2018-05-08T01:39:20.243Z,19.39
2018-05-08T01:40:00.707Z,19.4
2018-05-08T01:40:41.213Z,19.36
2018-05-08T01:41:21.662Z,19.33
2018-05-08T01:42:02.218Z,19.29
2018-05-08T01:42:42.654Z,19.32
2018-05-08T01:43:23.142Z,19.31
2018-05-08T01:44:03.634Z,19.29
2018-05-08T01:44:44.108Z,19.26
2018-05-08T01:45:24.609Z,19.21
2018-05-08T01:46:05.122Z,19.18
2018-05-08T01:46:45.609Z,19.16
2018-05-08T01:47:26.062Z,19.19
2018-05-08T01:48:06.578Z,19.23
2018-05-08T01:48:47.080Z,19.21
2018-05-08T01:49:27.518Z,19.1
2018-05-08T01:50:08.014Z,19.04
2018-05-08T01:50:48.513Z,19.02
2018-05-08T01:51:28.994Z,19.04
2018-05-08T01:52:09.465Z,18.99
2018-05-08T01:52:49.969Z,19.04
2018-05-08T01:53:30.467Z,19.02
2018-05-08T01:54:10.941Z,19.1
2018-05-08T01:54:51.435Z,19.16
2018-05-08T01:55:31.868Z,19.07
2018-05-08T01:56:12.369Z,19.04
2018-05-08T01:56:52.839Z,19
2018-05-08T01:57:33.321Z,19.06
2018-05-08T01:58:13.827Z,19.02
2018-05-08T01:58:54.322Z,19.08
2018-05-08T01:59:34.851Z,19.04
2018-05-08T02:00:15.312Z,19
2018-05-08T02:00:55.825Z,19.04
2018-05-08T02:01:36.280Z,19.08
2018-05-08T02:02:17.085Z,19.08
2018-05-08T02:02:57.532Z,18.99
2018-05-08T02:03:38.043Z,19
2018-05-08T02:04:18.533Z,18.99
2018-05-08T02:04:59.053Z,19.02
2018-05-08T02:05:39.522Z,19.07
2018-05-08T02:06:19.972Z,19.07
2018-05-08T02:07:00.464Z,19.04
2018-05-08T02:07:41.000Z,19.07
2018-05-08T02:08:21.419Z,19.02
2018-05-08T02:09:01.873Z,19.04
2018-05-08T02:09:42.386Z,19.08
2018-05-08T02:10:22.915Z,18.98
2018-05-08T02:11:03.366Z,18.94
2018-05-08T02:11:43.926Z,18.94
2018-05-08T02:12:24.342Z,18.94
2018-05-08T02:13:04.930Z,19.04
2018-05-08T02:13:45.400Z,19
2018-05-08T02:14:25.901Z,18.98
2018-05-08T02:15:06.353Z,19.08
2018-05-08T02:15:46.850Z,19
2018-05-08T02:16:27.354Z,19
2018-05-08T02:17:07.858Z,18.92
2018-05-08T02:17:48.245Z,18.9
2018-05-08T02:18:28.779Z,18.69
2018-05-08T02:19:09.278Z,18.78
2018-05-08T02:19:49.760Z,18.84
2018-05-08T02:20:30.213Z,18.94
2018-05-08T02:21:10.735Z,18.95
2018-05-08T02:21:51.193Z,18.94
2018-05-08T02:22:31.663Z,18.99
2018-05-08T02:23:12.140Z,18.99
2018-05-08T02:23:52.648Z,19.06
2018-05-08T02:24:33.094Z,18.98
2018-05-08T02:25:13.645Z,19.08
2018-05-08T02:25:54.173Z,19.06
2018-05-08T02:26:34.642Z,19.02
2018-05-08T02:27:15.058Z,19.06
2018-05-08T02:27:55.592Z,19.07
2018-05-08T02:28:36.045Z,19
2018-05-08T02:29:16.578Z,18.99
2018-05-08T02:29:57.034Z,19
2018-05-08T02:30:37.483Z,18.85
2018-05-08T02:31:17.981Z,18.78
2018-05-08T02:31:58.516Z,18.73
2018-05-08T02:32:38.985Z,18.78
2018-05-08T02:33:19.493Z,18.75
2018-05-08T02:33:59.926Z,18.8
2018-05-08T02:34:40.430Z,18.73
2018-05-08T02:35:20.943Z,18.82
2018-05-08T02:36:01.388Z,18.82
2018-05-08T02:36:41.895Z,18.82
2018-05-08T02:37:22.388Z,18.99
2018-05-08T02:38:02.873Z,18.94
2018-05-08T02:38:43.365Z,18.99
2018-05-08T02:39:23.858Z,18.98
2018-05-08T02:40:04.322Z,18.95
2018-05-08T02:40:44.822Z,19.02
2018-05-08T02:41:25.281Z,18.98
2018-05-08T02:42:05.783Z,18.98
2018-05-08T02:42:46.212Z,19.04
2018-05-08T02:43:26.798Z,19.11
2018-05-08T02:44:07.207Z,19.07
2018-05-08T02:44:47.750Z,19.07
2018-05-08T02:45:28.244Z,19.07
2018-05-08T02:46:08.726Z,19
2018-05-08T02:46:49.199Z,19.02
2018-05-08T02:47:29.656Z,19.02
2018-05-08T02:48:10.155Z,19.02
2018-05-08T02:48:50.660Z,19.07
2018-05-08T02:49:31.100Z,19.07
2018-05-08T02:50:11.616Z,18.99
2018-05-08T02:50:52.051Z,19
2018-05-08T02:51:32.594Z,19.07
2018-05-08T02:52:13.041Z,19.07
2018-05-08T02:52:53.533Z,19.06
2018-05-08T02:53:34.057Z,19.1
2018-05-08T02:54:14.505Z,19.08
2018-05-08T02:54:54.990Z,19.11
2018-05-08T02:55:35.445Z,18.92
2018-05-08T02:56:15.952Z,18.81
2018-05-08T02:56:56.444Z,18.87
2018-05-08T02:57:36.934Z,18.98
2018-05-08T02:58:17.482Z,18.94
2018-05-08T02:58:57.939Z,18.99
2018-05-08T02:59:38.407Z,19.04
2018-05-08T03:00:19.075Z,18.99
2018-05-08T03:00:59.337Z,19.08
2018-05-08T03:01:39.861Z,19
2018-05-08T03:02:20.353Z,18.98
2018-05-08T03:03:00.822Z,19.04
2018-05-08T03:03:41.330Z,18.99
2018-05-08T03:04:21.785Z,19.04
2018-05-08T03:05:02.287Z,19
2018-05-08T03:05:42.750Z,18.82
2018-05-08T03:06:23.276Z,18.92
2018-05-08T03:07:03.775Z,18.88
2018-05-08T03:07:44.236Z,18.8
2018-05-08T03:08:24.756Z,18.7
2018-05-08T03:09:05.276Z,18.67
2018-05-08T03:09:45.679Z,18.72
2018-05-08T03:10:26.184Z,18.85
2018-05-08T03:11:06.649Z,18.84
2018-05-08T03:11:47.161Z,18.81
2018-05-08T03:12:27.645Z,18.82
2018-05-08T03:13:08.114Z,18.73
2018-05-08T03:13:48.575Z,18.72
2018-05-08T03:14:29.118Z,18.72
2018-05-08T03:15:09.622Z,18.78
2018-05-08T03:15:50.070Z,18.72
2018-05-08T03:16:30.554Z,18.73
2018-05-08T03:17:11.030Z,18.73
2018-05-08T03:17:51.518Z,18.8
2018-05-08T03:18:32.016Z,18.7
2018-05-08T03:19:12.492Z,18.66
2018-05-08T03:19:53.017Z,18.78
2018-05-08T03:20:33.556Z,18.75
2018-05-08T03:21:14.003Z,18.75
2018-05-08T03:21:54.510Z,18.55
2018-05-08T03:22:35.009Z,18.51
2018-05-08T03:23:15.517Z,18.51
2018-05-08T03:23:55.999Z,18.58
2018-05-08T03:24:36.444Z,18.66
2018-05-08T03:25:16.912Z,18.65
2018-05-08T03:25:57.496Z,18.63
2018-05-08T03:26:37.965Z,18.58
2018-05-08T03:27:18.436Z,18.7
2018-05-08T03:27:58.951Z,18.58
2018-05-08T03:28:39.375Z,18.58
2018-05-08T03:29:19.910Z,18.76
2018-05-08T03:30:00.391Z,18.81
2018-05-08T03:30:40.872Z,18.75
2018-05-08T03:31:21.353Z,18.73
2018-05-08T03:32:01.814Z,18.6
2018-05-08T03:32:42.340Z,18.55
2018-05-08T03:33:22.816Z,18.7
2018-05-08T03:34:03.257Z,18.69
2018-05-08T03:34:43.854Z,18.72
2018-05-08T03:35:24.308Z,18.76
2018-05-08T03:36:04.801Z,18.72
2018-05-08T03:36:45.260Z,18.8
2018-05-08T03:37:25.837Z,18.72
2018-05-08T03:38:06.360Z,18.75
2018-05-08T03:38:46.809Z,18.69
2018-05-08T03:39:27.319Z,18.72
2018-05-08T03:40:07.773Z,18.73
2018-05-08T03:40:48.219Z,18.69
2018-05-08T03:41:28.739Z,18.7
2018-05-08T03:42:09.187Z,18.7
2018-05-08T03:42:49.729Z,18.7
2018-05-08T03:43:30.187Z,18.65
2018-05-08T03:44:10.737Z,18.67
2018-05-08T03:44:51.250Z,18.72
2018-05-08T03:45:31.687Z,18.66
2018-05-08T03:46:12.184Z,18.75
2018-05-08T03:46:52.737Z,18.72
2018-05-08T03:47:33.173Z,18.58
2018-05-08T03:48:13.648Z,18.63
2018-05-08T03:48:54.174Z,18.62
2018-05-08T03:49:34.656Z,18.55
2018-05-08T03:50:15.091Z,18.51
2018-05-08T03:50:55.650Z,18.44
2018-05-08T03:51:36.054Z,18.48
2018-05-08T03:52:16.559Z,18.51
2018-05-08T03:52:57.319Z,18.5
2018-05-08T03:53:37.799Z,18.5
2018-05-08T03:54:18.282Z,18.5
2018-05-08T03:54:58.757Z,18.33
2018-05-08T03:55:39.263Z,18.37
2018-05-08T03:56:19.758Z,18.36
2018-05-08T03:57:00.231Z,18.47
2018-05-08T03:57:40.729Z,18.44
2018-05-08T03:58:21.232Z,18.29
2018-05-08T03:59:01.693Z,18.26
2018-05-08T03:59:42.194Z,18.3
2018-05-08T04:00:22.685Z,18.27
2018-05-08T04:01:03.167Z,18.35
2018-05-08T04:01:43.685Z,18.27
2018-05-08T04:02:24.133Z,18.35
2018-05-08T04:03:04.624Z,18.3
2018-05-08T04:03:45.146Z,18.25
2018-05-08T04:04:25.570Z,18.29
2018-05-08T04:05:06.098Z,18.33
2018-05-08T04:05:46.774Z,18.35
2018-05-08T04:06:27.260Z,18.29
2018-05-08T04:07:07.710Z,18.25
2018-05-08T04:07:48.207Z,18.3
2018-05-08T04:08:28.832Z,18.26
2018-05-08T04:09:09.207Z,18.26
2018-05-08T04:09:49.657Z,18.18
2018-05-08T04:10:30.194Z,18.21
2018-05-08T04:11:10.647Z,18.25
2018-05-08T04:11:51.114Z,18.3
2018-05-08T04:12:31.665Z,18.25
2018-05-08T04:13:12.167Z,18.3
2018-05-08T04:13:52.656Z,18.33
2018-05-08T04:14:33.224Z,18.35
2018-05-08T04:15:13.678Z,18.32
2018-05-08T04:15:54.124Z,18.32
2018-05-08T04:16:34.619Z,18.2
2018-05-08T04:17:15.099Z,18.08
2018-05-08T04:17:55.613Z,18.2
2018-05-08T04:18:36.094Z,18.08
2018-05-08T04:19:16.628Z,18.1
2018-05-08T04:19:57.101Z,18.1
2018-05-08T04:20:37.611Z,18.2
2018-05-08T04:21:18.078Z,18.05
2018-05-08T04:21:58.628Z,18.07
2018-05-08T04:22:39.097Z,18.1
2018-05-08T04:23:19.608Z,18.1
2018-05-08T04:24:00.181Z,18.21
2018-05-08T04:24:40.594Z,18.33
2018-05-08T04:25:21.194Z,18.23
2018-05-08T04:26:01.736Z,17.96
2018-05-08T04:26:42.242Z,18.03
2018-05-08T04:27:22.697Z,18.07
2018-05-08T04:28:03.255Z,18.08
2018-05-08T04:28:43.774Z,18.17
2018-05-08T04:29:24.222Z,18.12
2018-05-08T04:30:04.762Z,18.05
2018-05-08T04:30:45.194Z,18
2018-05-08T04:31:25.706Z,17.97
2018-05-08T04:32:06.169Z,17.99
2018-05-08T04:32:46.683Z,18.03
2018-05-08T04:33:27.180Z,18.03
2018-05-08T04:34:07.645Z,17.99
2018-05-08T04:34:48.289Z,17.95
2018-05-08T04:35:28.755Z,17.95
2018-05-08T04:37:26.829Z,17.99
2018-05-08T04:38:07.320Z,18.03
2018-05-08T04:38:47.860Z,18.05
2018-05-08T04:39:28.338Z,17.89
2018-05-08T04:40:08.828Z,18.02
2018-05-08T04:40:49.323Z,18.1
2018-05-08T04:41:29.858Z,18.08
2018-05-08T04:42:10.316Z,18.08
2018-05-08T04:42:50.878Z,18.21
2018-05-08T04:43:31.374Z,18.17
2018-05-08T04:44:11.827Z,18.2
2018-05-08T04:44:52.307Z,18.2
2018-05-08T04:45:32.823Z,18.32
2018-05-08T04:46:13.304Z,18.27
2018-05-08T04:46:53.852Z,18.29
2018-05-08T04:47:35.140Z,18.25
2018-05-08T04:48:15.686Z,18.26
2018-05-08T04:48:56.168Z,18.27
2018-05-08T04:49:38.010Z,18.2
2018-05-08T04:50:18.711Z,18.18
2018-05-08T04:50:59.114Z,18.21
2018-05-08T04:51:39.599Z,18.3
2018-05-08T04:52:20.108Z,18.3
2018-05-08T04:53:00.585Z,18.32
2018-05-08T04:53:41.107Z,18.35
2018-05-08T04:54:21.595Z,18.35
2018-05-08T04:55:02.084Z,18.25
2018-05-08T04:55:42.566Z,18.26
2018-05-08T04:56:23.027Z,18.32
2018-05-08T04:57:03.565Z,18.33
2018-05-08T04:57:44.021Z,18.3
2018-05-08T04:58:24.614Z,18.37
2018-05-08T04:59:05.406Z,18.27
2018-05-08T04:59:45.959Z,18.26
2018-05-08T05:00:26.439Z,18.05
2018-05-08T05:01:06.905Z,18.2
2018-05-08T05:01:47.444Z,18.33
2018-05-08T05:02:27.964Z,18.23
2018-05-08T05:03:08.460Z,18.18
2018-05-08T05:03:49.050Z,18.17
2018-05-08T05:04:29.511Z,18.2
2018-05-08T05:05:10.447Z,18.26
2018-05-08T05:05:50.858Z,18.2
2018-05-08T05:06:31.415Z,18.27
2018-05-08T05:07:11.917Z,18.25
2018-05-08T05:07:52.380Z,18.3
2018-05-08T05:08:33.063Z,18.36
2018-05-08T05:09:13.531Z,18.3
2018-05-08T05:09:54.019Z,18.37
2018-05-08T05:10:34.500Z,18.35
2018-05-08T05:11:15.036Z,18.27
2018-05-08T05:11:55.543Z,18.07
2018-05-08T05:12:36.072Z,17.99
2018-05-08T05:13:16.504Z,17.96
2018-05-08T05:13:56.993Z,18.08
2018-05-08T05:14:37.493Z,18.15
2018-05-08T05:15:18.018Z,18.36
2018-05-08T05:15:59.160Z,18.27
2018-05-08T05:16:39.724Z,18.27
2018-05-08T05:17:20.175Z,18.25
2018-05-08T05:18:00.611Z,18.3
2018-05-08T05:18:41.071Z,18.29
2018-05-08T05:19:21.638Z,18.26
2018-05-08T05:20:02.083Z,18.3
2018-05-08T05:20:42.552Z,18.32
2018-05-08T05:21:23.066Z,18.3
2018-05-08T05:22:03.553Z,18.2
2018-05-08T05:22:44.083Z,18.29
2018-05-08T05:23:24.567Z,18.25
2018-05-08T05:24:05.122Z,18.26
2018-05-08T05:24:45.575Z,18.25
2018-05-08T05:25:26.078Z,18.26
2018-05-08T05:26:06.618Z,18.33
2018-05-08T05:26:47.106Z,18.29
2018-05-08T05:27:27.603Z,18.33
2018-05-08T05:28:08.074Z,18.14
2018-05-08T05:28:48.559Z,18.2
2018-05-08T05:29:29.033Z,18.15
2018-05-08T05:30:09.525Z,18.11
2018-05-08T05:30:49.983Z,18.1
2018-05-08T05:31:30.569Z,18.17
2018-05-08T05:32:10.980Z,18.08
2018-05-08T05:32:51.514Z,18.14
2018-05-08T05:33:31.993Z,18.12
2018-05-08T05:34:12.495Z,18.08
2018-05-08T05:34:52.975Z,18.2
2018-05-08T05:35:33.451Z,18.25
2018-05-08T05:36:13.954Z,18.23
2018-05-08T05:36:54.493Z,18.3
2018-05-08T05:37:35.009Z,18.25
2018-05-08T05:38:15.497Z,18.29
2018-05-08T05:38:56.031Z,18.35
2018-05-08T05:39:36.496Z,18.3
2018-05-08T05:40:17.044Z,18.44
2018-05-08T05:40:57.503Z,18.54
2018-05-08T05:41:38.033Z,18.44
2018-05-08T05:42:18.565Z,18.52
2018-05-08T05:42:59.002Z,18.63
2018-05-08T05:43:39.462Z,18.88
2018-05-08T05:44:19.908Z,19.02
2018-05-08T05:45:00.519Z,19.26
2018-05-08T05:45:40.954Z,19.56
2018-05-08T05:46:21.427Z,19.96
2018-05-08T05:47:01.938Z,20.13
2018-05-08T05:47:42.389Z,20.14
2018-05-08T05:48:22.891Z,20.23
2018-05-08T05:49:03.465Z,20.26
2018-05-08T05:49:43.894Z,20.41
2018-05-08T05:50:24.417Z,20.38
2018-05-08T05:51:04.879Z,20.41
2018-05-08T05:51:45.339Z,20.41
2018-05-08T05:52:25.836Z,20.42
2018-05-08T05:53:06.317Z,20.54
2018-05-08T05:53:46.773Z,20.5
2018-05-08T05:54:27.306Z,20.55
2018-05-08T05:55:07.769Z,20.58
2018-05-08T05:55:48.267Z,20.48
2018-05-08T05:56:28.795Z,20.47
2018-05-08T05:57:09.284Z,20.52
2018-05-08T05:57:49.787Z,20.47
2018-05-08T05:58:30.241Z,20.43
2018-05-08T05:59:10.721Z,20.52
2018-05-08T05:59:51.206Z,20.55
2018-05-08T06:00:31.722Z,20.7
2018-05-08T06:01:12.220Z,20.72
2018-05-08T06:01:52.721Z,20.72
2018-05-08T06:02:33.204Z,20.87
2018-05-08T06:03:13.667Z,20.88
2018-05-08T06:03:54.169Z,21.07
2018-05-08T06:04:34.678Z,21.13
2018-05-08T06:05:15.149Z,21.22
2018-05-08T06:05:55.615Z,21.29
2018-05-08T06:06:36.159Z,21.37
2018-05-08T06:07:16.581Z,21.38
2018-05-08T06:07:57.088Z,21.53
2018-05-08T06:08:37.544Z,21.53
2018-05-08T06:09:18.056Z,21.52
2018-05-08T06:09:58.539Z,21.44
2018-05-08T06:10:39.023Z,21.44
2018-05-08T06:11:19.492Z,21.31
2018-05-08T06:12:00.083Z,21.4
2018-05-08T06:12:40.499Z,21.32
2018-05-08T06:13:21.015Z,21.35
2018-05-08T06:14:01.494Z,21.19
2018-05-08T06:14:41.968Z,21.28
2018-05-08T06:15:22.486Z,21.14
2018-05-08T06:16:02.991Z,21.25
2018-05-08T06:16:43.463Z,21.1
2018-05-08T06:17:23.952Z,20.91
2018-05-08T06:18:04.464Z,20.85
2018-05-08T06:18:44.949Z,20.91
2018-05-08T06:19:25.420Z,21.03
2018-05-08T06:20:05.940Z,20.87
2018-05-08T06:20:46.347Z,20.73
2018-05-08T06:21:26.876Z,20.73
2018-05-08T06:22:07.359Z,20.58
2018-05-08T06:22:47.823Z,20.55
2018-05-08T06:23:28.371Z,20.43
2018-05-08T06:24:08.885Z,20.43
2018-05-08T06:24:49.341Z,20.41
2018-05-08T06:25:29.868Z,20.43
2018-05-08T06:26:10.326Z,20.5
2018-05-08T06:26:50.843Z,20.55
2018-05-08T06:27:31.313Z,20.59
2018-05-08T06:28:11.826Z,20.62
2018-05-08T06:28:52.276Z,20.54
2018-05-08T06:29:32.782Z,20.57
2018-05-08T06:30:13.273Z,20.55
2018-05-08T06:30:53.774Z,20.58
2018-05-08T06:31:34.247Z,20.55
2018-05-08T06:32:14.721Z,20.54
2018-05-08T06:32:55.256Z,20.69
2018-05-08T06:33:35.733Z,20.73
2018-05-08T06:34:16.226Z,20.72
2018-05-08T06:34:56.856Z,20.74
2018-05-08T06:35:37.371Z,20.76
2018-05-08T06:36:17.823Z,20.69
2018-05-08T06:36:58.317Z,20.74
2018-05-08T06:37:38.759Z,20.74
2018-05-08T06:38:19.285Z,20.82
2018-05-08T06:38:59.897Z,20.88
2018-05-08T06:39:40.308Z,21.01
2018-05-08T06:40:20.814Z,21.06
2018-05-08T06:41:01.322Z,21.04
2018-05-08T06:41:41.755Z,21.21
2018-05-08T06:42:22.254Z,21.22
2018-05-08T06:43:02.761Z,21.34
2018-05-08T06:43:43.281Z,21.32
2018-05-08T06:44:23.896Z,21.31
2018-05-08T06:45:04.293Z,21.32
2018-05-08T06:45:44.818Z,21.53
2018-05-08T06:46:25.298Z,21.65
2018-05-08T06:47:05.728Z,21.71
2018-05-08T06:47:46.216Z,21.69
2018-05-08T06:48:26.724Z,21.83
2018-05-08T06:49:07.223Z,21.88
2018-05-08T06:49:47.659Z,21.77
2018-05-08T06:50:28.186Z,21.82
2018-05-08T06:51:08.646Z,21.96
2018-05-08T06:51:49.114Z,21.72
2018-05-08T06:52:29.601Z,21.83
2018-05-08T06:53:10.101Z,22.02
2018-05-08T06:53:50.620Z,21.83
2018-05-08T06:54:31.086Z,21.92
2018-05-08T06:55:11.547Z,21.94
2018-05-08T06:55:52.057Z,22.1
2018-05-08T06:56:32.588Z,22.22
2018-05-08T06:57:13.063Z,22.1
2018-05-08T06:57:53.580Z,22.25
2018-05-08T06:58:35.905Z,22.28
2018-05-08T06:59:16.353Z,22.33
2018-05-08T06:59:56.898Z,22.37
2018-05-08T07:00:37.411Z,22.45
2018-05-08T07:01:18.059Z,22.58
2018-05-08T07:01:58.513Z,22.49
2018-05-08T07:02:39.000Z,22.52
2018-05-08T07:03:21.837Z,22.47
2018-05-08T07:04:03.977Z,22.58
2018-05-08T07:04:44.605Z,22.4
2018-05-08T07:05:25.090Z,22.57
2018-05-08T07:06:05.570Z,22.55
2018-05-08T07:06:46.054Z,22.52
2018-05-08T07:07:26.574Z,22.52
2018-05-08T07:08:07.128Z,22.54
2018-05-08T07:08:47.604Z,22.37
2018-05-08T07:09:28.082Z,22.46
2018-05-08T07:10:08.538Z,22.31
2018-05-08T07:10:49.024Z,22.33
2018-05-08T07:11:29.647Z,22.36
2018-05-08T07:12:10.027Z,22.42
2018-05-08T07:12:50.477Z,22.52
2018-05-08T07:13:30.996Z,22.55
2018-05-08T07:14:11.533Z,22.3
2018-05-08T07:14:51.982Z,22.4
2018-05-08T07:15:32.556Z,22.52
2018-05-08T07:16:13.305Z,22.51
2018-05-08T07:16:53.526Z,22.58
2018-05-08T07:17:34.373Z,22.54
2018-05-08T07:18:15.090Z,22.57
2018-05-08T07:18:55.612Z,22.68
2018-05-08T07:19:36.131Z,22.73
2018-05-08T07:20:16.660Z,22.73
2018-05-08T07:20:57.089Z,22.77
2018-05-08T07:21:37.595Z,22.91
2018-05-08T07:22:18.147Z,22.83
2018-05-08T07:22:58.711Z,22.58
2018-05-08T07:23:39.195Z,22.54
2018-05-08T07:24:19.720Z,22.62
2018-05-08T07:25:00.200Z,22.58
2018-05-08T07:25:40.830Z,22.7
2018-05-08T07:26:21.240Z,22.77
2018-05-08T07:27:02.104Z,22.77
2018-05-08T07:27:42.625Z,22.75
2018-05-08T07:28:23.054Z,22.88
2018-05-08T07:29:03.740Z,22.85
2018-05-08T07:29:44.330Z,22.92
2018-05-08T07:30:24.664Z,22.97
2018-05-08T07:31:05.143Z,23.04
2018-05-08T07:31:45.640Z,23.01
2018-05-08T07:32:26.306Z,22.94
2018-05-08T07:33:06.814Z,22.86
2018-05-08T07:33:47.315Z,23.05
2018-05-08T07:34:27.849Z,22.9
2018-05-08T07:35:08.329Z,23.04
2018-05-08T07:35:48.920Z,23.13
2018-05-08T07:36:29.410Z,23.13
2018-05-08T07:37:10.891Z,23.15
2018-05-08T07:37:54.091Z,23.28
2018-05-08T07:38:34.624Z,23.31
2018-05-08T07:39:16.398Z,23.31
2018-05-08T07:39:55.776Z,23.33
2018-05-08T07:40:36.339Z,23.4
2018-05-08T07:41:17.070Z,23.33
2018-05-08T07:41:57.597Z,23.35
2018-05-08T07:42:38.757Z,23.32
2018-05-08T07:43:18.601Z,23.33
2018-05-08T07:43:59.336Z,23.43
2018-05-08T07:44:41.760Z,23.36
2018-05-08T07:45:23.397Z,23.31
2018-05-08T07:46:03.831Z,23.31
2018-05-08T07:46:44.403Z,23.33
2018-05-08T07:47:25.312Z,23.4
2018-05-08T07:48:05.803Z,23.53
2018-05-08T07:48:46.885Z,23.5
2018-05-08T07:49:27.343Z,23.53
2018-05-08T07:50:07.901Z,23.51
2018-05-08T07:50:48.352Z,23.54
2018-05-08T07:51:28.896Z,23.54
2018-05-08T07:52:09.337Z,23.43
2018-05-08T07:52:50.092Z,23.5
2018-05-08T07:53:30.849Z,23.35
2018-05-08T07:54:11.326Z,23.33
2018-05-08T07:54:51.784Z,23.43
2018-05-08T07:55:32.288Z,23.4
2018-05-08T07:56:12.738Z,23.39
2018-05-08T07:56:53.259Z,23.4
2018-05-08T07:57:33.808Z,23.25
2018-05-08T07:58:14.366Z,23.27
2018-05-08T07:58:54.850Z,23.2
2018-05-08T07:59:35.303Z,23.25
2018-05-08T08:00:15.814Z,23.31
2018-05-08T08:00:56.304Z,23.42
2018-05-08T08:01:36.792Z,23.22
2018-05-08T08:02:17.299Z,23.27
2018-05-08T08:02:57.763Z,23.2
2018-05-08T08:03:38.252Z,23.31
2018-05-08T08:04:18.751Z,23.33
2018-05-08T08:04:59.231Z,23.36
2018-05-08T08:05:39.717Z,23.31
2018-05-08T08:06:20.342Z,23.17
2018-05-08T08:07:00.836Z,23.15
2018-05-08T08:07:41.326Z,23.22
2018-05-08T08:08:21.814Z,23.17
2018-05-08T08:09:02.287Z,23.2
2018-05-08T08:09:42.821Z,23.2
2018-05-08T08:10:23.310Z,23.16
2018-05-08T08:11:03.879Z,22.95
2018-05-08T08:11:44.326Z,23.09
2018-05-08T08:12:24.997Z,22.98
2018-05-08T08:13:05.449Z,22.94
2018-05-08T08:13:46.036Z,22.97
2018-05-08T08:14:26.696Z,22.92
2018-05-08T08:15:07.172Z,22.97
2018-05-08T08:15:48.248Z,22.98
2018-05-08T08:16:28.701Z,22.98
2018-05-08T08:17:09.185Z,22.97
2018-05-08T08:17:49.674Z,23.04
2018-05-08T08:18:30.292Z,23.09
2018-05-08T08:19:10.848Z,23.04
2018-05-08T08:19:51.327Z,22.94
2018-05-08T08:20:31.842Z,22.94
2018-05-08T08:21:12.344Z,22.94
2018-05-08T08:21:52.837Z,23.13
2018-05-08T08:22:33.300Z,23.12
2018-05-08T08:23:13.786Z,22.98
2018-05-08T08:23:54.297Z,22.73
2018-05-08T08:24:34.851Z,22.83
2018-05-08T08:25:15.355Z,22.98
2018-05-08T08:25:55.842Z,23.01
2018-05-08T08:26:36.348Z,23
2018-05-08T08:27:16.840Z,22.98
2018-05-08T08:27:57.447Z,23.01
2018-05-08T08:28:38.230Z,22.98
2018-05-08T08:29:18.744Z,23.02
2018-05-08T08:29:59.210Z,23.02
2018-05-08T08:30:39.705Z,22.94
2018-05-08T08:31:20.189Z,22.98
2018-05-08T08:32:00.678Z,23.09
2018-05-08T08:32:41.151Z,23.01
2018-05-08T08:33:21.694Z,23.1
2018-05-08T08:34:02.174Z,23.1
2018-05-08T08:34:42.686Z,23.12
2018-05-08T08:35:23.198Z,23.12
2018-05-08T08:36:03.738Z,23.13
2018-05-08T08:36:44.262Z,23.12
2018-05-08T08:37:24.711Z,23.17
2018-05-08T08:38:05.226Z,23.19
2018-05-08T08:38:45.727Z,23.13
2018-05-08T08:39:26.178Z,23.12
2018-05-08T08:40:06.739Z,23.13
2018-05-08T08:40:47.225Z,23.1
2018-05-08T08:41:27.719Z,23.05
2018-05-08T08:42:08.148Z,22.98
2018-05-08T08:42:48.806Z,23.01
2018-05-08T08:43:29.378Z,22.94
2018-05-08T08:44:09.851Z,23.05
2018-05-08T08:44:50.335Z,23.15
2018-05-08T08:45:30.863Z,23.13